createdAt,value
2022-10-29T00:02:22.199Z,11.73
2022-10-29T00:04:49.263Z,13.00
2022-10-29T00:07:16.409Z,13.08
2022-10-29T00:09:43.371Z,12.76
2022-10-29T00:12:10.332Z,7.66
2022-10-29T00:14:37.467Z,12.18
2022-10-29T00:17:04.769Z,11.00
2022-10-29T00:19:31.756Z,8.26
2022-10-29T00:21:58.719Z,7.63
2022-10-29T00:24:25.677Z,11.54
2022-10-29T00:26:52.657Z,4.58
2022-10-29T00:29:19.596Z,7.35
2022-10-29T00:31:46.656Z,8.43
2022-10-29T00:34:13.803Z,10.95
2022-10-29T00:36:40.867Z,2.67
2022-10-29T00:39:07.842Z,8.37
2022-10-29T00:41:34.809Z,8.07
2022-10-29T00:44:23.017Z,12.81
2022-10-29T00:47:11.382Z,12.80
2022-10-29T00:49:39.819Z,12.82
2022-10-29T00:52:08.004Z,11.05
2022-10-29T00:54:39.174Z,10.53
2022-10-29T00:57:24.514Z,10.95
2022-10-29T00:59:51.533Z,11.91
2022-10-29T01:02:19.019Z,11.43
2022-10-29T01:04:46.725Z,10.65
2022-10-29T01:07:13.700Z,11.48
2022-10-29T01:09:40.945Z,12.58
2022-10-29T01:12:07.912Z,12.51
2022-10-29T01:14:37.569Z,12.49
2022-10-29T01:17:38.750Z,12.46
2022-10-29T01:20:35.879Z,12.05
2022-10-29T01:23:36.078Z,12.39
2022-10-29T01:26:24.970Z,12.38
2022-10-29T01:29:22.515Z,12.01
2022-10-29T01:32:11.440Z,12.31
2022-10-29T01:34:57.742Z,11.56
2022-10-29T01:40:21.827Z,12.22
2022-10-29T01:43:04.567Z,3.93
2022-10-29T01:45:43.831Z,6.05
2022-10-29T01:48:22.884Z,7.72
2022-10-29T01:50:55.291Z,10.09
2022-10-29T01:53:23.180Z,10.97
2022-10-29T01:55:50.164Z,10.72
2022-10-29T02:01:07.479Z,12.06
2022-10-29T02:03:43.256Z,11.02
2022-10-29T02:06:31.099Z,10.97
2022-10-29T02:09:35.157Z,12.00
2022-10-29T02:12:23.169Z,11.30
2022-10-29T02:14:57.410Z,11.54
2022-10-29T02:17:25.581Z,11.88
2022-10-29T02:19:52.582Z,10.48
2022-10-29T02:22:19.610Z,10.83
2022-10-29T02:24:46.621Z,7.56
2022-10-29T02:27:16.661Z,10.40
2022-10-29T02:29:43.685Z,9.76
2022-10-29T02:32:10.603Z,11.15
2022-10-29T02:34:37.549Z,6.38
2022-10-29T02:37:04.521Z,11.63
2022-10-29T02:39:31.679Z,6.71
2022-10-29T02:41:58.792Z,11.73
2022-10-29T02:44:25.851Z,11.21
2022-10-29T02:46:52.781Z,10.07
2022-10-29T02:49:19.957Z,9.16
2022-10-29T02:51:47.102Z,10.29
2022-10-29T02:54:14.046Z,11.40
2022-10-29T02:56:40.999Z,10.81
2022-10-29T02:59:10.865Z,11.33
2022-10-29T03:01:39.111Z,9.80
2022-10-29T03:04:06.253Z,9.59
2022-10-29T03:06:33.249Z,10.31
2022-10-29T03:09:00.171Z,8.90
2022-10-29T03:11:27.092Z,11.26
2022-10-29T03:13:54.034Z,9.48
2022-10-29T03:16:20.980Z,8.87
2022-10-29T03:18:47.966Z,10.31
2022-10-29T03:21:14.898Z,10.15
2022-10-29T03:23:41.913Z,8.55
2022-10-29T03:26:11.095Z,11.25
2022-10-29T03:28:37.950Z,9.59
2022-10-29T03:31:05.327Z,9.11
2022-10-29T03:33:32.251Z,8.79
2022-10-29T03:36:01.001Z,10.32
2022-10-29T03:38:29.704Z,11.61
2022-10-29T03:40:56.717Z,10.49
2022-10-29T03:43:23.823Z,9.67
2022-10-29T03:45:54.759Z,11.70
2022-10-29T03:48:23.655Z,11.71
2022-10-29T03:50:58.931Z,11.01
2022-10-29T03:53:27.705Z,11.76
2022-10-29T03:55:55.938Z,11.79
2022-10-29T03:58:23.649Z,11.77
2022-10-29T04:00:58.493Z,11.78
2022-10-29T04:03:27.018Z,11.00
2022-10-29T04:05:54.126Z,6.76
2022-10-29T04:08:21.300Z,9.67
2022-10-29T04:10:49.693Z,10.30
2022-10-29T04:13:17.426Z,6.94
2022-10-29T04:15:44.525Z,1.38
2022-10-29T04:18:12.793Z,10.13
2022-10-29T04:21:05.740Z,6.52
2022-10-29T04:29:03.153Z,6.24
2022-10-29T04:31:30.127Z,9.75
2022-10-29T04:33:57.491Z,5.31
2022-10-29T04:36:24.686Z,5.91
2022-10-29T04:38:51.656Z,7.17
2022-10-29T04:41:18.596Z,5.83
2022-10-29T04:43:45.569Z,10.02
2022-10-29T04:46:12.981Z,11.80
2022-10-29T04:48:40.048Z,5.71
2022-10-29T04:51:07.097Z,3.55
2022-10-29T04:53:34.067Z,8.39
2022-10-29T04:56:02.236Z,7.19
2022-10-29T04:58:29.374Z,10.76
2022-10-29T05:01:02.760Z,3.55
2022-10-29T05:03:29.909Z,10.26
2022-10-29T05:05:57.154Z,11.89
2022-10-29T05:08:24.354Z,11.93
2022-10-29T05:10:51.274Z,10.94
2022-10-29T05:13:18.097Z,10.30
2022-10-29T05:15:53.201Z,11.88
2022-10-29T05:18:20.861Z,11.87
2022-10-29T05:20:47.855Z,11.04
2022-10-29T05:23:15.488Z,12.04
2022-10-29T05:25:42.544Z,11.35
2022-10-29T05:28:14.546Z,9.88
2022-10-29T05:30:42.164Z,12.11
2022-10-29T05:33:10.112Z,3.24
2022-10-29T05:35:37.539Z,12.12
2022-10-29T05:38:05.456Z,11.29
2022-10-29T05:40:32.873Z,12.16
2022-10-29T05:43:00.689Z,12.15
2022-10-29T05:45:27.839Z,11.48
2022-10-29T05:48:02.486Z,8.86
2022-10-29T05:50:31.204Z,11.96
2022-10-29T05:53:04.364Z,3.59
2022-10-29T05:55:33.792Z,12.34
2022-10-29T05:58:06.195Z,4.20
2022-10-29T06:00:36.471Z,12.29
2022-10-29T06:03:03.578Z,9.34
2022-10-29T06:05:30.861Z,12.40
2022-10-29T06:07:59.296Z,10.19
2022-10-29T06:10:28.531Z,12.48
2022-10-29T06:12:55.558Z,10.01
2022-10-29T06:15:23.362Z,11.40
2022-10-29T06:17:51.112Z,11.80
2022-10-29T06:20:21.337Z,11.77
2022-10-29T06:22:56.186Z,11.70
2022-10-29T06:25:23.495Z,12.57
2022-10-29T06:27:59.186Z,12.62
2022-10-29T06:30:26.252Z,11.74
2022-10-29T06:32:53.286Z,11.26
2022-10-29T06:35:20.505Z,10.33
2022-10-29T06:37:47.494Z,12.01
2022-10-29T06:40:14.469Z,11.81
2022-10-29T06:42:41.793Z,10.49
2022-10-29T06:45:09.177Z,12.43
2022-10-29T06:47:40.696Z,12.39
2022-10-29T06:50:09.284Z,12.67
2022-10-29T06:52:36.684Z,12.67
2022-10-29T06:55:05.269Z,12.38
2022-10-29T06:57:32.865Z,12.64
2022-10-29T07:00:03.848Z,12.34
2022-10-29T07:02:36.661Z,11.70
2022-10-29T07:05:03.758Z,8.36
2022-10-29T07:07:30.690Z,12.03
2022-10-29T07:09:58.574Z,7.82
2022-10-29T07:12:25.508Z,11.75
2022-10-29T07:14:52.419Z,11.31
2022-10-29T07:17:19.363Z,11.12
2022-10-29T07:19:46.475Z,11.18
2022-10-29T07:22:13.547Z,12.43
2022-10-29T07:24:40.539Z,12.20
2022-10-29T07:27:07.676Z,11.70
2022-10-29T07:29:35.587Z,12.69
2022-10-29T07:32:02.533Z,11.07
2022-10-29T07:34:29.502Z,12.78
2022-10-29T07:36:56.434Z,12.45
2022-10-29T07:39:23.574Z,12.79
2022-10-29T07:41:51.406Z,13.77
2022-10-29T07:44:19.922Z,11.61
2022-10-29T07:46:46.883Z,12.25
2022-10-29T07:49:13.989Z,9.05
2022-10-29T07:51:40.961Z,11.50
2022-10-29T07:54:12.252Z,11.32
2022-10-29T07:56:45.100Z,12.15
2022-10-29T07:59:15.999Z,5.41
2022-10-29T08:01:43.220Z,13.97
2022-10-29T08:04:10.425Z,14.61
2022-10-29T08:06:37.653Z,12.52
2022-10-29T08:09:04.607Z,13.70
2022-10-29T08:11:32.915Z,11.20
2022-10-29T08:14:00.121Z,10.28
2022-10-29T08:16:27.135Z,14.72
2022-10-29T08:18:54.048Z,14.77
2022-10-29T08:21:21.203Z,15.23
2022-10-29T08:23:48.468Z,14.01
2022-10-29T08:26:15.490Z,13.10
2022-10-29T08:28:43.340Z,14.53
2022-10-29T08:31:10.426Z,15.19
2022-10-29T08:33:37.390Z,14.61
2022-10-29T08:36:04.697Z,14.52
2022-10-29T08:38:32.003Z,14.58
2022-10-29T08:41:35.083Z,14.63
2022-10-29T08:44:46.574Z,15.79
2022-10-29T08:47:21.353Z,14.37
2022-10-29T08:50:19.797Z,15.66
2022-10-29T08:52:53.231Z,15.18
2022-10-29T08:55:34.410Z,15.49
2022-10-29T08:58:12.845Z,15.34
2022-10-29T09:00:42.911Z,15.09
2022-10-29T09:03:12.579Z,15.98
2022-10-29T09:06:04.957Z,16.38
2022-10-29T09:08:40.422Z,15.71
2022-10-29T09:11:41.404Z,16.58
2022-10-29T09:14:18.491Z,16.77
2022-10-29T09:17:03.401Z,16.81
2022-10-29T09:19:39.959Z,16.85
2022-10-29T09:22:37.365Z,16.91
2022-10-29T09:25:11.917Z,16.90
2022-10-29T09:27:54.398Z,16.79
2022-10-29T09:30:22.300Z,15.62
2022-10-29T09:33:01.168Z,16.83
2022-10-29T09:35:39.609Z,16.86
2022-10-29T09:38:20.940Z,15.30
2022-10-29T09:40:47.947Z,14.84
2022-10-29T09:43:26.918Z,17.01
2022-10-29T09:46:29.091Z,17.02
2022-10-29T09:49:02.031Z,17.00
2022-10-29T09:51:42.915Z,16.43
2022-10-29T09:54:09.795Z,17.01
2022-10-29T09:56:41.934Z,15.91
2022-10-29T09:59:11.920Z,17.17
2022-10-29T10:01:39.868Z,15.68
2022-10-29T10:04:19.785Z,17.24
2022-10-29T10:07:09.702Z,17.32
2022-10-29T10:09:57.695Z,17.57
2022-10-29T10:12:28.184Z,17.65
2022-10-29T10:15:18.137Z,17.74
2022-10-29T10:18:15.879Z,17.68
2022-10-29T10:20:49.543Z,16.73
2022-10-29T10:23:28.200Z,16.40
2022-10-29T10:26:02.357Z,17.76
2022-10-29T10:28:36.259Z,16.85
2022-10-29T10:31:16.359Z,17.67
2022-10-29T10:33:54.961Z,17.55
2022-10-29T10:36:26.269Z,15.04
2022-10-29T10:38:56.645Z,17.72
2022-10-29T10:41:30.526Z,17.58
2022-10-29T10:44:02.703Z,14.43
2022-10-29T10:46:39.711Z,12.53
2022-10-29T10:49:14.495Z,17.82
2022-10-29T10:51:49.059Z,16.22
2022-10-29T10:54:34.029Z,17.78
2022-10-29T10:57:13.105Z,17.70
2022-10-29T10:59:43.195Z,17.67
2022-10-29T11:02:21.333Z,15.21
2022-10-29T11:04:56.488Z,17.41
2022-10-29T11:07:27.521Z,14.54
2022-10-29T11:09:57.398Z,14.53
2022-10-29T11:12:40.594Z,15.80
2022-10-29T11:15:13.788Z,16.42
2022-10-29T11:17:57.214Z,16.66
2022-10-29T11:20:28.968Z,16.58
2022-10-29T11:23:23.405Z,16.53
2022-10-29T11:26:19.564Z,16.17
2022-10-29T11:28:52.765Z,14.17
2022-10-29T11:32:01.250Z,16.44
2022-10-29T11:34:40.059Z,16.57
2022-10-29T11:37:15.104Z,16.68
2022-10-29T11:39:51.637Z,16.63
2022-10-29T11:42:18.630Z,15.54
2022-10-29T11:44:45.758Z,16.79
2022-10-29T11:47:38.015Z,16.85
2022-10-29T11:50:23.335Z,16.98
2022-10-29T11:53:21.253Z,15.44
2022-10-29T11:56:23.124Z,16.92
2022-10-29T11:58:58.495Z,16.17
2022-10-29T12:01:31.618Z,16.78
2022-10-29T12:04:24.182Z,16.78
2022-10-29T12:07:25.391Z,16.79
2022-10-29T12:09:52.372Z,16.79
2022-10-29T12:12:30.817Z,16.85
2022-10-29T12:15:27.580Z,16.08
2022-10-29T12:18:26.327Z,16.83
2022-10-29T12:21:06.653Z,16.97
2022-10-29T12:24:03.073Z,15.20
2022-10-29T12:26:45.495Z,16.30
2022-10-29T12:29:40.413Z,16.97
2022-10-29T12:32:16.353Z,17.03
2022-10-29T12:35:03.707Z,16.88
2022-10-29T12:37:50.505Z,15.63
2022-10-29T12:40:25.840Z,15.42
2022-10-29T12:42:54.225Z,14.85
2022-10-29T12:45:59.607Z,17.06
2022-10-29T12:49:05.190Z,16.97
2022-10-29T12:51:40.662Z,15.76
2022-10-29T12:54:32.784Z,16.98
2022-10-29T12:57:15.064Z,16.90
2022-10-29T12:59:43.429Z,16.40
2022-10-29T13:02:45.301Z,16.81
2022-10-29T13:05:14.379Z,16.90
2022-10-29T13:08:04.211Z,16.92
2022-10-29T13:10:34.151Z,17.08
2022-10-29T13:13:16.385Z,16.99
2022-10-29T13:15:43.481Z,17.13
2022-10-29T13:18:13.544Z,16.93
2022-10-29T13:20:43.513Z,12.90
2022-10-29T13:23:22.617Z,16.94
2022-10-29T13:25:57.065Z,16.92
2022-10-29T13:28:24.077Z,16.84
2022-10-29T13:30:53.848Z,12.03
2022-10-29T13:33:26.699Z,16.78
2022-10-29T13:36:09.383Z,16.72
2022-10-29T13:39:05.856Z,16.78
2022-10-29T13:41:43.135Z,16.69
2022-10-29T13:44:28.219Z,16.31
2022-10-29T13:46:57.828Z,16.53
2022-10-29T13:49:35.188Z,15.66
2022-10-29T13:52:06.825Z,15.18
2022-10-29T13:54:48.098Z,15.57
2022-10-29T13:57:42.879Z,15.61
2022-10-29T14:00:12.946Z,16.46
2022-10-29T14:02:42.781Z,16.40
2022-10-29T14:05:09.791Z,16.36
2022-10-29T14:07:51.908Z,16.31
2022-10-29T14:10:24.578Z,16.19
2022-10-29T14:12:56.885Z,13.19
2022-10-29T14:15:24.087Z,15.33
2022-10-29T14:17:50.957Z,16.21
2022-10-29T14:20:25.840Z,16.22
2022-10-29T14:22:52.944Z,14.61
2022-10-29T14:25:36.727Z,16.15
2022-10-29T14:28:10.730Z,16.04
2022-10-29T14:30:37.878Z,15.58
2022-10-29T14:33:29.353Z,16.05
2022-10-29T14:36:06.365Z,15.74
2022-10-29T14:38:41.575Z,15.99
2022-10-29T14:41:09.489Z,13.15
2022-10-29T14:43:37.412Z,15.84
2022-10-29T14:46:14.715Z,13.46
2022-10-29T14:48:52.017Z,15.52
2022-10-29T14:51:20.834Z,15.82
2022-10-29T14:53:55.167Z,12.74
2022-10-29T14:56:26.764Z,15.29
2022-10-29T14:58:53.933Z,12.05
2022-10-29T15:01:21.329Z,15.31
2022-10-29T15:03:48.572Z,13.87
2022-10-29T15:06:20.865Z,12.12
2022-10-29T15:09:20.575Z,15.41
2022-10-29T15:11:58.793Z,15.42
2022-10-29T15:14:34.412Z,15.45
2022-10-29T15:17:02.003Z,13.68
2022-10-29T15:19:29.455Z,14.21
2022-10-29T15:21:56.544Z,15.24
2022-10-29T15:24:25.153Z,14.94
2022-10-29T15:26:57.215Z,9.60
2022-10-29T15:29:33.631Z,13.71
2022-10-29T15:32:02.085Z,14.99
2022-10-29T15:34:35.699Z,13.38
2022-10-29T15:37:23.750Z,14.42
2022-10-29T15:39:59.508Z,15.01
2022-10-29T15:42:35.720Z,15.08
2022-10-29T15:45:08.943Z,15.04
2022-10-29T15:47:44.133Z,15.06
2022-10-29T15:50:13.862Z,15.09
2022-10-29T15:52:44.379Z,15.04
2022-10-29T15:55:26.015Z,13.81
2022-10-29T15:57:54.590Z,13.46
2022-10-29T16:00:23.923Z,9.57
2022-10-29T16:02:51.919Z,12.16
2022-10-29T16:05:19.380Z,13.60
2022-10-29T16:07:47.829Z,12.08
2022-10-29T16:10:22.077Z,14.94
2022-10-29T16:12:50.513Z,14.92
2022-10-29T16:15:19.685Z,14.91
2022-10-29T16:17:47.671Z,14.83
2022-10-29T16:20:17.454Z,14.77
2022-10-29T16:22:45.784Z,12.87
2022-10-29T16:25:29.015Z,12.87
2022-10-29T16:27:56.577Z,10.51
2022-10-29T16:30:24.114Z,13.78
2022-10-29T16:32:52.727Z,13.86
2022-10-29T16:35:25.361Z,14.69
2022-10-29T16:37:54.027Z,14.67
2022-10-29T16:40:23.979Z,14.67
2022-10-29T16:42:51.426Z,14.34
2022-10-29T16:45:24.905Z,14.63
2022-10-29T16:47:52.626Z,14.56
2022-10-29T16:50:28.393Z,14.63
2022-10-29T16:53:02.525Z,14.57
2022-10-29T16:55:30.642Z,14.56
2022-10-29T16:57:58.038Z,13.99
2022-10-29T17:00:26.392Z,13.56
2022-10-29T17:02:53.495Z,6.55
2022-10-29T17:05:23.735Z,12.96
2022-10-29T17:07:54.573Z,14.05
2022-10-29T17:10:21.768Z,14.29
2022-10-29T17:12:49.245Z,12.78
2022-10-29T17:15:16.368Z,14.00
2022-10-29T17:17:46.321Z,13.95
2022-10-29T17:20:13.775Z,13.23
2022-10-29T17:22:41.096Z,12.99
2022-10-29T17:25:08.338Z,12.92
2022-10-29T17:27:37.867Z,11.54
2022-10-29T17:30:05.319Z,13.00
2022-10-29T17:32:32.978Z,12.65
2022-10-29T17:35:00.640Z,13.05
2022-10-29T17:37:28.581Z,11.67
2022-10-29T17:39:55.597Z,12.98
2022-10-29T17:42:22.559Z,11.70
2022-10-29T17:44:49.485Z,13.28
2022-10-29T17:47:16.502Z,13.45
2022-10-29T17:49:46.343Z,14.00
2022-10-29T17:52:13.338Z,13.07
2022-10-29T17:54:40.271Z,13.32
2022-10-29T17:57:07.598Z,14.01
2022-10-29T17:59:34.585Z,12.62
2022-10-29T18:02:01.593Z,8.43
2022-10-29T18:04:28.622Z,13.41
2022-10-29T18:06:56.530Z,11.95
2022-10-29T18:09:23.484Z,12.98
2022-10-29T18:11:50.772Z,14.01
2022-10-29T18:14:18.233Z,12.89
2022-10-29T18:16:46.089Z,13.11
2022-10-29T18:19:13.096Z,11.21
2022-10-29T18:21:40.052Z,13.17
2022-10-29T18:24:07.599Z,13.92
2022-10-29T18:26:36.451Z,13.92
2022-10-29T18:29:09.115Z,11.71
2022-10-29T18:31:37.895Z,13.89
2022-10-29T18:34:07.858Z,13.88
2022-10-29T18:36:39.261Z,12.13
2022-10-29T18:39:06.765Z,12.96
2022-10-29T18:41:34.766Z,10.85
2022-10-29T18:44:01.961Z,13.78
2022-10-29T18:46:28.908Z,12.17
2022-10-29T18:48:55.878Z,12.79
2022-10-29T18:51:28.480Z,12.71
2022-10-29T18:53:58.246Z,13.45
2022-10-29T18:56:26.910Z,13.72
2022-10-29T18:58:55.911Z,12.19
2022-10-29T19:01:29.112Z,5.67
2022-10-29T19:03:58.412Z,13.47
2022-10-29T19:06:27.787Z,12.38
2022-10-29T19:08:55.666Z,12.90
2022-10-29T19:11:25.831Z,13.69
2022-10-29T19:14:02.833Z,12.62
2022-10-29T19:16:31.372Z,13.70
2022-10-29T19:19:00.850Z,13.72
2022-10-29T19:21:28.163Z,11.05
2022-10-29T19:23:56.582Z,12.46
2022-10-29T19:26:24.534Z,13.47
2022-10-29T19:28:51.476Z,12.44
2022-10-29T19:31:24.210Z,13.13
2022-10-29T19:33:52.913Z,11.03
2022-10-29T19:36:21.694Z,13.33
2022-10-29T19:38:49.167Z,12.22
2022-10-29T19:41:18.472Z,13.49
2022-10-29T19:43:45.929Z,12.44
2022-10-29T19:46:19.759Z,12.96
2022-10-29T19:48:51.475Z,12.17
2022-10-29T19:51:20.030Z,13.70
2022-10-29T19:53:47.308Z,13.68
2022-10-29T19:56:16.141Z,11.26
2022-10-29T19:58:43.351Z,13.73
2022-10-29T20:01:18.818Z,13.35
2022-10-29T20:03:46.740Z,11.79
2022-10-29T20:06:14.941Z,13.38
2022-10-29T20:08:42.002Z,13.26
2022-10-29T20:11:09.245Z,5.73
2022-10-29T20:13:36.886Z,11.25
2022-10-29T20:16:17.434Z,12.80
2022-10-29T20:18:44.636Z,12.17
2022-10-29T20:21:12.470Z,12.73
2022-10-29T20:23:39.836Z,13.45
2022-10-29T20:26:07.534Z,13.42
2022-10-29T20:28:35.093Z,12.46
2022-10-29T20:31:24.734Z,12.22
2022-10-29T20:33:54.868Z,13.26
2022-10-29T20:36:23.224Z,11.73
2022-10-29T20:38:56.619Z,12.57
2022-10-29T20:41:24.227Z,11.81
2022-10-29T20:43:56.071Z,11.81
2022-10-29T20:46:24.249Z,13.29
2022-10-29T20:48:51.198Z,12.57
2022-10-29T20:51:18.165Z,12.69
2022-10-29T20:53:45.473Z,12.63
2022-10-29T20:56:15.974Z,12.92
2022-10-29T20:58:43.711Z,12.05
2022-10-29T21:01:13.885Z,13.19
2022-10-29T21:03:41.475Z,5.23
2022-10-29T21:06:15.673Z,13.03
2022-10-29T21:08:43.996Z,6.99
2022-10-29T21:11:12.854Z,13.04
2022-10-29T21:13:39.949Z,12.88
2022-10-29T21:16:20.158Z,12.53
2022-10-29T21:18:50.707Z,12.94
2022-10-29T21:21:18.519Z,12.98
2022-10-29T21:23:46.016Z,12.96
2022-10-29T21:26:15.741Z,12.14
2022-10-29T21:28:43.173Z,12.95
2022-10-29T21:31:10.279Z,6.87
2022-10-29T21:33:37.955Z,6.60
2022-10-29T21:36:05.695Z,12.94
2022-10-29T21:38:33.721Z,12.66
2022-10-29T21:41:02.547Z,11.18
2022-10-29T21:43:30.014Z,8.18
2022-10-29T21:45:57.258Z,6.84
2022-10-29T21:48:28.448Z,11.90
2022-10-29T21:51:00.489Z,12.97
2022-10-29T21:53:27.480Z,10.14
2022-10-29T21:56:01.893Z,10.51
2022-10-29T21:58:28.934Z,9.98
2022-10-29T22:01:06.736Z,12.18
2022-10-29T22:03:35.808Z,11.92
2022-10-29T22:06:07.973Z,11.38
2022-10-29T22:08:35.926Z,12.11
2022-10-29T22:11:03.541Z,10.37
2022-10-29T22:13:32.042Z,12.93
2022-10-29T22:15:59.264Z,10.28
2022-10-29T22:18:26.839Z,9.39
2022-10-29T22:21:04.958Z,9.52
2022-10-29T22:23:31.852Z,10.99
2022-10-29T22:25:58.755Z,4.62
2022-10-29T22:28:25.724Z,12.60
2022-10-29T22:31:00.495Z,12.95
2022-10-29T22:33:28.573Z,12.88
2022-10-29T22:35:56.028Z,11.61
2022-10-29T22:38:22.972Z,11.97
2022-10-29T22:40:50.314Z,11.35
2022-10-29T22:43:17.305Z,11.93
2022-10-29T22:45:46.245Z,10.99
2022-10-29T22:48:15.233Z,12.70
2022-10-29T22:50:42.197Z,11.72
2022-10-29T22:53:09.130Z,11.85
2022-10-29T22:55:36.052Z,12.01
2022-10-29T22:58:03.085Z,12.01
2022-10-29T23:00:29.997Z,9.73
2022-10-29T23:02:57.237Z,12.82
2022-10-29T23:05:24.287Z,11.20
2022-10-29T23:07:51.244Z,11.39
2022-10-29T23:10:18.329Z,12.65
2022-10-29T23:12:45.252Z,10.64
2022-10-29T23:15:12.203Z,12.85
2022-10-29T23:17:39.526Z,11.58
2022-10-29T23:20:06.884Z,12.53
2022-10-29T23:22:33.829Z,9.98
2022-10-29T23:25:00.750Z,4.78
2022-10-29T23:27:27.821Z,12.59
2022-10-29T23:29:54.762Z,6.10
2022-10-29T23:32:21.695Z,11.12
2022-10-29T23:34:48.695Z,12.45
2022-10-29T23:37:15.592Z,9.06
2022-10-29T23:39:42.522Z,11.78
2022-10-29T23:42:09.441Z,12.60
2022-10-29T23:44:36.386Z,10.89
2022-10-29T23:47:03.332Z,10.11
2022-10-29T23:49:30.237Z,11.68
2022-10-29T23:51:57.188Z,9.43
2022-10-29T23:54:24.411Z,11.72
2022-10-29T23:56:51.366Z,11.54
2022-10-29T23:59:18.384Z,10.79
